sensor_id;sensor_type;location;lat;lon;timestamp;temperature;humidity
26326;DHT22;14032;52.510;7.342;2023-07-13T00:00:28;16.40;99.90
26326;DHT22;14032;52.510;7.342;2023-07-13T00:02:54;16.40;99.90
26326;DHT22;14032;52.510;7.342;2023-07-13T00:05:21;16.50;99.90
26326;DHT22;14032;52.510;7.342;2023-07-13T00:07:47;16.40;99.90
26326;DHT22;14032;52.510;7.342;2023-07-13T00:10:13;16.40;99.90
26326;DHT22;14032;52.510;7.342;2023-07-13T00:12:39;16.40;99.90
26326;DHT22;14032;52.510;7.342;2023-07-13T00:15:10;16.40;99.90
26326;DHT22;14032;52.510;7.342;2023-07-13T00:17:37;16.30;99.90
26326;DHT22;14032;52.510;7.342;2023-07-13T00:20:04;16.30;99.90
26326;DHT22;14032;52.510;7.342;2023-07-13T00:22:30;16.30;99.90
26326;DHT22;14032;52.510;7.342;2023-07-13T00:24:56;16.20;99.90
26326;DHT22;14032;52.510;7.342;2023-07-13T00:27:22;16.30;99.90
26326;DHT22;14032;52.510;7.342;2023-07-13T00:29:48;16.20;99.90
26326;DHT22;14032;52.510;7.342;2023-07-13T00:32:14;16.30;99.90
26326;DHT22;14032;52.510;7.342;2023-07-13T00:34:40;16.20;99.90
26326;DHT22;14032;52.510;7.342;2023-07-13T00:37:07;16.20;99.90
26326;DHT22;14032;52.510;7.342;2023-07-13T00:39:33;16.20;99.90
26326;DHT22;14032;52.510;7.342;2023-07-13T00:42:00;16.20;99.90
26326;DHT22;14032;52.510;7.342;2023-07-13T00:44:26;16.20;99.90
26326;DHT22;14032;52.510;7.342;2023-07-13T00:46:51;16.20;99.90
26326;DHT22;14032;52.510;7.342;2023-07-13T00:49:20;16.10;99.90
26326;DHT22;14032;52.510;7.342;2023-07-13T00:51:51;16.20;99.90
26326;DHT22;14032;52.510;7.342;2023-07-13T00:54:22;16.10;99.90
26326;DHT22;14032;52.510;7.342;2023-07-13T00:56:51;16.20;99.90
26326;DHT22;14032;52.510;7.342;2023-07-13T00:59:20;16.20;99.90
26326;DHT22;14032;52.510;7.342;2023-07-13T01:01:47;16.20;99.90
26326;DHT22;14032;52.510;7.342;2023-07-13T01:04:13;16.10;99.90
26326;DHT22;14032;52.510;7.342;2023-07-13T01:06:39;16.10;99.90
26326;DHT22;14032;52.510;7.342;2023-07-13T01:09:07;16.10;99.90
26326;DHT22;14032;52.510;7.342;2023-07-13T01:11:34;16.10;99.90
26326;DHT22;14032;52.510;7.342;2023-07-13T01:14:00;16.10;99.90
26326;DHT22;14032;52.510;7.342;2023-07-13T01:16:30;16.10;99.90
26326;DHT22;14032;52.510;7.342;2023-07-13T01:18:57;16.10;99.90
26326;DHT22;14032;52.510;7.342;2023-07-13T01:21:29;16.20;99.90
26326;DHT22;14032;52.510;7.342;2023-07-13T01:23:55;16.20;99.90
26326;DHT22;14032;52.510;7.342;2023-07-13T01:26:21;16.20;99.90
26326;DHT22;14032;52.510;7.342;2023-07-13T01:28:46;16.20;99.90
26326;DHT22;14032;52.510;7.342;2023-07-13T01:31:12;16.20;99.90
26326;DHT22;14032;52.510;7.342;2023-07-13T01:33:39;16.20;99.90
26326;DHT22;14032;52.510;7.342;2023-07-13T01:36:09;16.20;99.90
26326;DHT22;14032;52.510;7.342;2023-07-13T01:38:35;16.20;99.90
26326;DHT22;14032;52.510;7.342;2023-07-13T01:41:02;16.20;99.90
26326;DHT22;14032;52.510;7.342;2023-07-13T01:43:28;16.20;99.90
26326;DHT22;14032;52.510;7.342;2023-07-13T01:45:53;16.20;99.90
26326;DHT22;14032;52.510;7.342;2023-07-13T01:48:19;16.20;99.90
26326;DHT22;14032;52.510;7.342;2023-07-13T01:50:45;16.10;99.90
26326;DHT22;14032;52.510;7.342;2023-07-13T01:53:11;16.20;99.90
26326;DHT22;14032;52.510;7.342;2023-07-13T01:55:37;16.20;99.90
26326;DHT22;14032;52.510;7.342;2023-07-13T01:58:03;16.20;99.90
26326;DHT22;14032;52.510;7.342;2023-07-13T02:00:29;16.10;99.90
26326;DHT22;14032;52.510;7.342;2023-07-13T02:02:54;16.10;99.90
26326;DHT22;14032;52.510;7.342;2023-07-13T02:05:20;16.10;99.90
26326;DHT22;14032;52.510;7.342;2023-07-13T02:07:46;16.10;99.90
26326;DHT22;14032;52.510;7.342;2023-07-13T02:10:12;16.10;99.90
26326;DHT22;14032;52.510;7.342;2023-07-13T02:12:38;16.00;99.90
26326;DHT22;14032;52.510;7.342;2023-07-13T02:15:04;16.00;99.90
26326;DHT22;14032;52.510;7.342;2023-07-13T02:17:30;16.00;99.90
26326;DHT22;14032;52.510;7.342;2023-07-13T02:19:56;16.00;99.90
26326;DHT22;14032;52.510;7.342;2023-07-13T02:22:22;15.90;99.90
26326;DHT22;14032;52.510;7.342;2023-07-13T02:24:48;16.00;99.90
26326;DHT22;14032;52.510;7.342;2023-07-13T02:27:13;16.00;99.90
26326;DHT22;14032;52.510;7.342;2023-07-13T02:29:39;16.00;99.90
26326;DHT22;14032;52.510;7.342;2023-07-13T02:32:05;16.00;99.90
26326;DHT22;14032;52.510;7.342;2023-07-13T02:34:31;16.00;99.90
26326;DHT22;14032;52.510;7.342;2023-07-13T02:36:56;16.00;99.90
26326;DHT22;14032;52.510;7.342;2023-07-13T02:39:22;16.00;99.90
26326;DHT22;14032;52.510;7.342;2023-07-13T02:41:47;16.00;99.90
26326;DHT22;14032;52.510;7.342;2023-07-13T02:44:14;15.90;99.90
26326;DHT22;14032;52.510;7.342;2023-07-13T02:46:39;16.00;99.90
26326;DHT22;14032;52.510;7.342;2023-07-13T02:49:06;15.90;99.90
26326;DHT22;14032;52.510;7.342;2023-07-13T02:51:31;16.00;99.90
26326;DHT22;14032;52.510;7.342;2023-07-13T02:54:03;16.00;99.90
26326;DHT22;14032;52.510;7.342;2023-07-13T02:56:30;16.00;99.90
26326;DHT22;14032;52.510;7.342;2023-07-13T02:58:56;16.00;99.90
26326;DHT22;14032;52.510;7.342;2023-07-13T03:01:22;16.00;99.90
26326;DHT22;14032;52.510;7.342;2023-07-13T03:03:49;16.00;99.90
26326;DHT22;14032;52.510;7.342;2023-07-13T03:06:16;15.90;99.90
26326;DHT22;14032;52.510;7.342;2023-07-13T03:08:42;15.90;99.90
26326;DHT22;14032;52.510;7.342;2023-07-13T03:11:14;15.80;99.90
26326;DHT22;14032;52.510;7.342;2023-07-13T03:13:41;15.90;99.90
26326;DHT22;14032;52.510;7.342;2023-07-13T03:16:07;15.80;99.90
26326;DHT22;14032;52.510;7.342;2023-07-13T03:18:33;15.80;99.90
26326;DHT22;14032;52.510;7.342;2023-07-13T03:20:59;15.70;99.90
26326;DHT22;14032;52.510;7.342;2023-07-13T03:23:25;15.60;99.90
26326;DHT22;14032;52.510;7.342;2023-07-13T03:26:01;15.60;99.90
26326;DHT22;14032;52.510;7.342;2023-07-13T03:28:28;15.60;99.90
26326;DHT22;14032;52.510;7.342;2023-07-13T03:31:04;15.50;99.90
26326;DHT22;14032;52.510;7.342;2023-07-13T03:33:31;15.60;99.90
26326;DHT22;14032;52.510;7.342;2023-07-13T03:35:56;15.50;99.90
26326;DHT22;14032;52.510;7.342;2023-07-13T03:38:22;15.50;99.90
26326;DHT22;14032;52.510;7.342;2023-07-13T03:40:48;15.40;99.90
26326;DHT22;14032;52.510;7.342;2023-07-13T03:43:14;15.40;99.90
26326;DHT22;14032;52.510;7.342;2023-07-13T03:45:39;15.40;99.90
26326;DHT22;14032;52.510;7.342;2023-07-13T03:48:05;15.40;99.90
26326;DHT22;14032;52.510;7.342;2023-07-13T03:50:31;15.40;99.90
26326;DHT22;14032;52.510;7.342;2023-07-13T03:53:00;15.40;99.90
26326;DHT22;14032;52.510;7.342;2023-07-13T03:55:26;15.40;99.90
26326;DHT22;14032;52.510;7.342;2023-07-13T03:57:57;15.40;99.90
26326;DHT22;14032;52.510;7.342;2023-07-13T04:00:23;15.40;99.90
26326;DHT22;14032;52.510;7.342;2023-07-13T04:02:48;15.40;99.90
26326;DHT22;14032;52.510;7.342;2023-07-13T04:05:15;15.40;99.90
26326;DHT22;14032;52.510;7.342;2023-07-13T04:07:40;15.40;99.90
26326;DHT22;14032;52.510;7.342;2023-07-13T04:10:06;15.40;99.90
26326;DHT22;14032;52.510;7.342;2023-07-13T04:12:32;15.40;99.90
26326;DHT22;14032;52.510;7.342;2023-07-13T04:14:57;15.40;99.90
26326;DHT22;14032;52.510;7.342;2023-07-13T04:17:23;15.40;99.90
26326;DHT22;14032;52.510;7.342;2023-07-13T04:19:49;15.40;99.90
26326;DHT22;14032;52.510;7.342;2023-07-13T04:22:14;15.40;99.90
26326;DHT22;14032;52.510;7.342;2023-07-13T04:24:40;15.50;99.90
26326;DHT22;14032;52.510;7.342;2023-07-13T04:27:06;15.50;99.90
26326;DHT22;14032;52.510;7.342;2023-07-13T04:29:32;15.50;99.90
26326;DHT22;14032;52.510;7.342;2023-07-13T04:31:57;15.50;99.90
26326;DHT22;14032;52.510;7.342;2023-07-13T04:34:23;15.40;99.90
26326;DHT22;14032;52.510;7.342;2023-07-13T04:36:49;15.50;99.90
26326;DHT22;14032;52.510;7.342;2023-07-13T04:39:15;15.50;99.90
26326;DHT22;14032;52.510;7.342;2023-07-13T04:41:41;15.50;99.90
26326;DHT22;14032;52.510;7.342;2023-07-13T04:44:06;15.50;99.90
26326;DHT22;14032;52.510;7.342;2023-07-13T04:46:32;15.60;99.90
26326;DHT22;14032;52.510;7.342;2023-07-13T04:48:57;15.60;99.90
26326;DHT22;14032;52.510;7.342;2023-07-13T04:51:24;15.60;99.90
26326;DHT22;14032;52.510;7.342;2023-07-13T04:53:50;15.70;99.90
26326;DHT22;14032;52.510;7.342;2023-07-13T04:56:15;15.60;99.90
26326;DHT22;14032;52.510;7.342;2023-07-13T04:58:41;15.60;99.90
26326;DHT22;14032;52.510;7.342;2023-07-13T05:01:07;15.70;99.90
26326;DHT22;14032;52.510;7.342;2023-07-13T05:03:34;15.70;99.90
26326;DHT22;14032;52.510;7.342;2023-07-13T05:06:02;15.70;99.90
26326;DHT22;14032;52.510;7.342;2023-07-13T05:08:28;15.90;99.90
26326;DHT22;14032;52.510;7.342;2023-07-13T05:10:55;15.90;99.90
26326;DHT22;14032;52.510;7.342;2023-07-13T05:13:21;16.00;99.90
26326;DHT22;14032;52.510;7.342;2023-07-13T05:15:55;16.10;99.90
26326;DHT22;14032;52.510;7.342;2023-07-13T05:18:21;16.20;99.90
26326;DHT22;14032;52.510;7.342;2023-07-13T05:20:46;16.20;99.90
26326;DHT22;14032;52.510;7.342;2023-07-13T05:23:12;16.10;99.90
26326;DHT22;14032;52.510;7.342;2023-07-13T05:25:37;16.10;99.90
26326;DHT22;14032;52.510;7.342;2023-07-13T05:28:03;16.10;99.90
26326;DHT22;14032;52.510;7.342;2023-07-13T05:30:29;16.10;99.90
26326;DHT22;14032;52.510;7.342;2023-07-13T05:32:54;16.00;99.90
26326;DHT22;14032;52.510;7.342;2023-07-13T05:35:20;16.00;99.90
26326;DHT22;14032;52.510;7.342;2023-07-13T05:37:45;16.00;99.90
26326;DHT22;14032;52.510;7.342;2023-07-13T05:40:11;16.20;99.90
26326;DHT22;14032;52.510;7.342;2023-07-13T05:42:36;16.30;99.90
26326;DHT22;14032;52.510;7.342;2023-07-13T05:45:03;16.30;99.90
26326;DHT22;14032;52.510;7.342;2023-07-13T05:47:28;16.50;99.90
26326;DHT22;14032;52.510;7.342;2023-07-13T05:49:54;16.50;99.90
26326;DHT22;14032;52.510;7.342;2023-07-13T05:52:19;16.70;99.90
26326;DHT22;14032;52.510;7.342;2023-07-13T05:54:45;16.80;99.90
26326;DHT22;14032;52.510;7.342;2023-07-13T05:57:11;16.80;99.90
26326;DHT22;14032;52.510;7.342;2023-07-13T05:59:36;16.90;99.90
26326;DHT22;14032;52.510;7.342;2023-07-13T06:02:07;16.90;99.90
26326;DHT22;14032;52.510;7.342;2023-07-13T06:04:33;17.00;99.90
26326;DHT22;14032;52.510;7.342;2023-07-13T06:06:59;17.10;99.90
26326;DHT22;14032;52.510;7.342;2023-07-13T06:09:25;17.20;99.90
26326;DHT22;14032;52.510;7.342;2023-07-13T06:11:51;17.30;99.90
26326;DHT22;14032;52.510;7.342;2023-07-13T06:14:16;17.40;99.90
26326;DHT22;14032;52.510;7.342;2023-07-13T06:16:42;17.40;99.90
26326;DHT22;14032;52.510;7.342;2023-07-13T06:19:07;17.50;99.90
26326;DHT22;14032;52.510;7.342;2023-07-13T06:21:33;17.50;99.90
26326;DHT22;14032;52.510;7.342;2023-07-13T06:23:58;17.60;99.90
26326;DHT22;14032;52.510;7.342;2023-07-13T06:26:24;17.60;99.90
26326;DHT22;14032;52.510;7.342;2023-07-13T06:28:50;17.70;99.90
26326;DHT22;14032;52.510;7.342;2023-07-13T06:31:15;17.80;99.90
26326;DHT22;14032;52.510;7.342;2023-07-13T06:33:41;17.80;99.90
26326;DHT22;14032;52.510;7.342;2023-07-13T06:36:08;17.80;99.90
26326;DHT22;14032;52.510;7.342;2023-07-13T06:38:34;17.90;99.90
26326;DHT22;14032;52.510;7.342;2023-07-13T06:41:01;17.90;99.90
26326;DHT22;14032;52.510;7.342;2023-07-13T06:43:27;18.00;99.90
26326;DHT22;14032;52.510;7.342;2023-07-13T06:45:55;18.10;99.90
26326;DHT22;14032;52.510;7.342;2023-07-13T06:48:21;18.20;99.90
26326;DHT22;14032;52.510;7.342;2023-07-13T06:50:48;18.20;99.90
26326;DHT22;14032;52.510;7.342;2023-07-13T06:53:17;18.30;99.90
26326;DHT22;14032;52.510;7.342;2023-07-13T06:55:43;18.30;99.90
26326;DHT22;14032;52.510;7.342;2023-07-13T06:58:10;18.30;99.90
26326;DHT22;14032;52.510;7.342;2023-07-13T07:00:35;18.20;99.90
26326;DHT22;14032;52.510;7.342;2023-07-13T07:03:01;18.20;99.90
26326;DHT22;14032;52.510;7.342;2023-07-13T07:05:26;18.20;99.90
26326;DHT22;14032;52.510;7.342;2023-07-13T07:07:54;18.30;99.90
26326;DHT22;14032;52.510;7.342;2023-07-13T07:10:20;18.40;99.90
26326;DHT22;14032;52.510;7.342;2023-07-13T07:12:46;18.40;99.90
26326;DHT22;14032;52.510;7.342;2023-07-13T07:15:13;18.40;99.90
26326;DHT22;14032;52.510;7.342;2023-07-13T07:17:39;18.50;99.90
26326;DHT22;14032;52.510;7.342;2023-07-13T07:20:05;18.60;99.90
26326;DHT22;14032;52.510;7.342;2023-07-13T07:22:31;18.70;99.90
26326;DHT22;14032;52.510;7.342;2023-07-13T07:24:57;18.80;99.90
26326;DHT22;14032;52.510;7.342;2023-07-13T07:27:24;18.90;99.90
26326;DHT22;14032;52.510;7.342;2023-07-13T07:29:50;18.80;99.90
26326;DHT22;14032;52.510;7.342;2023-07-13T07:32:15;18.80;99.90
26326;DHT22;14032;52.510;7.342;2023-07-13T07:34:41;18.80;99.90
26326;DHT22;14032;52.510;7.342;2023-07-13T07:37:06;18.70;99.90
26326;DHT22;14032;52.510;7.342;2023-07-13T07:39:34;18.70;99.90
26326;DHT22;14032;52.510;7.342;2023-07-13T07:42:00;18.80;99.90
26326;DHT22;14032;52.510;7.342;2023-07-13T07:44:26;19.00;99.90
26326;DHT22;14032;52.510;7.342;2023-07-13T07:46:52;19.20;99.90
26326;DHT22;14032;52.510;7.342;2023-07-13T07:49:17;19.20;99.90
26326;DHT22;14032;52.510;7.342;2023-07-13T07:51:43;19.20;99.90
26326;DHT22;14032;52.510;7.342;2023-07-13T07:54:09;19.20;99.90
26326;DHT22;14032;52.510;7.342;2023-07-13T07:56:34;19.10;99.90
26326;DHT22;14032;52.510;7.342;2023-07-13T07:59:00;19.20;99.90
26326;DHT22;14032;52.510;7.342;2023-07-13T08:01:26;19.10;99.90
26326;DHT22;14032;52.510;7.342;2023-07-13T08:03:51;19.00;99.90
26326;DHT22;14032;52.510;7.342;2023-07-13T08:06:17;18.90;99.90
26326;DHT22;14032;52.510;7.342;2023-07-13T08:08:45;18.90;99.90
26326;DHT22;14032;52.510;7.342;2023-07-13T08:11:10;19.00;99.90
26326;DHT22;14032;52.510;7.342;2023-07-13T08:13:36;19.10;99.90
26326;DHT22;14032;52.510;7.342;2023-07-13T08:16:04;19.20;99.90
26326;DHT22;14032;52.510;7.342;2023-07-13T08:18:31;19.30;99.90
26326;DHT22;14032;52.510;7.342;2023-07-13T08:20:56;19.50;99.90
26326;DHT22;14032;52.510;7.342;2023-07-13T08:23:22;19.70;99.90
26326;DHT22;14032;52.510;7.342;2023-07-13T08:25:55;19.80;99.90
26326;DHT22;14032;52.510;7.342;2023-07-13T08:28:23;20.00;99.90
26326;DHT22;14032;52.510;7.342;2023-07-13T08:30:49;20.00;99.90
26326;DHT22;14032;52.510;7.342;2023-07-13T08:33:19;20.00;99.90
26326;DHT22;14032;52.510;7.342;2023-07-13T08:35:48;20.00;99.90
26326;DHT22;14032;52.510;7.342;2023-07-13T08:38:15;19.90;99.90
26326;DHT22;14032;52.510;7.342;2023-07-13T08:40:41;19.90;99.90
26326;DHT22;14032;52.510;7.342;2023-07-13T08:43:12;19.90;99.90
26326;DHT22;14032;52.510;7.342;2023-07-13T08:48:39;20.00;99.90
26326;DHT22;14032;52.510;7.342;2023-07-13T08:54:04;20.20;99.90
26326;DHT22;14032;52.510;7.342;2023-07-13T08:56:32;20.10;99.90
26326;DHT22;14032;52.510;7.342;2023-07-13T08:59:13;19.90;99.90
26326;DHT22;14032;52.510;7.342;2023-07-13T09:04:46;19.80;99.90
26326;DHT22;14032;52.510;7.342;2023-07-13T09:07:47;19.80;99.90
26326;DHT22;14032;52.510;7.342;2023-07-13T09:10:23;19.80;99.90
26326;DHT22;14032;52.510;7.342;2023-07-13T09:15:51;20.00;99.90
26326;DHT22;14032;52.510;7.342;2023-07-13T09:20:58;20.20;99.90
26326;DHT22;14032;52.510;7.342;2023-07-13T09:23:28;20.30;99.90
26326;DHT22;14032;52.510;7.342;2023-07-13T09:26:11;20.60;99.90
26326;DHT22;14032;52.510;7.342;2023-07-13T09:28:54;20.70;99.90
26326;DHT22;14032;52.510;7.342;2023-07-13T09:33:50;20.80;99.90
26326;DHT22;14032;52.510;7.342;2023-07-13T09:36:22;20.80;99.90
26326;DHT22;14032;52.510;7.342;2023-07-13T09:39:03;20.90;99.90
26326;DHT22;14032;52.510;7.342;2023-07-13T09:44:35;21.10;99.90
26326;DHT22;14032;52.510;7.342;2023-07-13T09:47:00;21.10;99.90
26326;DHT22;14032;52.510;7.342;2023-07-13T09:49:29;21.00;99.90
26326;DHT22;14032;52.510;7.342;2023-07-13T09:52:06;20.90;99.90
26326;DHT22;14032;52.510;7.342;2023-07-13T09:54:34;20.70;99.90
26326;DHT22;14032;52.510;7.342;2023-07-13T09:57:02;20.50;99.90
26326;DHT22;14032;52.510;7.342;2023-07-13T09:59:33;20.50;99.90
26326;DHT22;14032;52.510;7.342;2023-07-13T10:02:00;20.40;99.90
26326;DHT22;14032;52.510;7.342;2023-07-13T10:04:35;20.20;99.90
26326;DHT22;14032;52.510;7.342;2023-07-13T10:07:12;20.20;99.90
26326;DHT22;14032;52.510;7.342;2023-07-13T10:09:40;20.10;99.90
26326;DHT22;14032;52.510;7.342;2023-07-13T10:12:15;20.00;99.90
26326;DHT22;14032;52.510;7.342;2023-07-13T10:14:42;19.90;99.90
26326;DHT22;14032;52.510;7.342;2023-07-13T10:17:14;19.90;99.90
26326;DHT22;14032;52.510;7.342;2023-07-13T10:19:41;19.80;99.90
26326;DHT22;14032;52.510;7.342;2023-07-13T10:22:45;19.80;99.90
26326;DHT22;14032;52.510;7.342;2023-07-13T10:25:22;19.90;99.90
26326;DHT22;14032;52.510;7.342;2023-07-13T10:28:01;19.90;99.90
26326;DHT22;14032;52.510;7.342;2023-07-13T10:30:34;19.90;99.90
26326;DHT22;14032;52.510;7.342;2023-07-13T10:33:03;19.80;99.90
26326;DHT22;14032;52.510;7.342;2023-07-13T10:35:30;19.80;99.90
26326;DHT22;14032;52.510;7.342;2023-07-13T10:38:10;19.90;99.90
26326;DHT22;14032;52.510;7.342;2023-07-13T10:40:43;19.90;99.90
26326;DHT22;14032;52.510;7.342;2023-07-13T10:43:36;19.80;99.90
26326;DHT22;14032;52.510;7.342;2023-07-13T10:46:08;19.50;99.90
26326;DHT22;14032;52.510;7.342;2023-07-13T10:48:35;19.30;99.90
26326;DHT22;14032;52.510;7.342;2023-07-13T10:51:04;18.90;99.90
26326;DHT22;14032;52.510;7.342;2023-07-13T10:53:34;18.60;99.90
26326;DHT22;14032;52.510;7.342;2023-07-13T10:56:04;18.30;99.90
26326;DHT22;14032;52.510;7.342;2023-07-13T10:58:39;18.10;99.90
26326;DHT22;14032;52.510;7.342;2023-07-13T11:01:14;18.10;99.90
26326;DHT22;14032;52.510;7.342;2023-07-13T11:03:50;18.10;99.90
26326;DHT22;14032;52.510;7.342;2023-07-13T11:08:56;18.00;99.90
26326;DHT22;14032;52.510;7.342;2023-07-13T11:18:49;17.90;99.90
26326;DHT22;14032;52.510;7.342;2023-07-13T11:21:21;17.70;99.90
26326;DHT22;14032;52.510;7.342;2023-07-13T11:24:01;17.40;99.90
26326;DHT22;14032;52.510;7.342;2023-07-13T11:29:24;16.90;99.90
26326;DHT22;14032;52.510;7.342;2023-07-13T11:31:56;16.70;99.90
26326;DHT22;14032;52.510;7.342;2023-07-13T11:36:53;16.40;99.90
26326;DHT22;14032;52.510;7.342;2023-07-13T11:39:29;16.40;99.90
26326;DHT22;14032;52.510;7.342;2023-07-13T11:42:01;16.20;99.90
26326;DHT22;14032;52.510;7.342;2023-07-13T11:44:29;16.10;99.90
26326;DHT22;14032;52.510;7.342;2023-07-13T11:46:58;16.00;99.90
26326;DHT22;14032;52.510;7.342;2023-07-13T11:49:28;15.90;99.90
26326;DHT22;14032;52.510;7.342;2023-07-13T11:51:54;15.70;99.90
26326;DHT22;14032;52.510;7.342;2023-07-13T11:54:27;15.60;99.90
26326;DHT22;14032;52.510;7.342;2023-07-13T11:56:57;15.50;99.90
26326;DHT22;14032;52.510;7.342;2023-07-13T11:59:25;15.50;99.90
26326;DHT22;14032;52.510;7.342;2023-07-13T12:01:53;15.50;99.90
26326;DHT22;14032;52.510;7.342;2023-07-13T12:04:38;15.60;99.90
26326;DHT22;14032;52.510;7.342;2023-07-13T12:07:06;15.80;99.90
26326;DHT22;14032;52.510;7.342;2023-07-13T12:09:34;15.90;99.90
26326;DHT22;14032;52.510;7.342;2023-07-13T12:12:02;16.10;99.90
26326;DHT22;14032;52.510;7.342;2023-07-13T12:14:27;16.30;99.90
26326;DHT22;14032;52.510;7.342;2023-07-13T12:16:54;16.40;99.90
26326;DHT22;14032;52.510;7.342;2023-07-13T12:19:26;16.60;99.90
26326;DHT22;14032;52.510;7.342;2023-07-13T12:21:55;16.70;99.90
26326;DHT22;14032;52.510;7.342;2023-07-13T12:24:22;16.80;99.90
26326;DHT22;14032;52.510;7.342;2023-07-13T12:27:06;16.90;99.90
26326;DHT22;14032;52.510;7.342;2023-07-13T12:29:32;17.00;99.90
26326;DHT22;14032;52.510;7.342;2023-07-13T12:31:58;17.00;99.90
26326;DHT22;14032;52.510;7.342;2023-07-13T12:34:25;17.00;99.90
26326;DHT22;14032;52.510;7.342;2023-07-13T12:37:02;17.00;99.90
26326;DHT22;14032;52.510;7.342;2023-07-13T12:39:45;17.10;99.90
26326;DHT22;14032;52.510;7.342;2023-07-13T12:42:19;17.20;99.90
26326;DHT22;14032;52.510;7.342;2023-07-13T12:44:46;17.30;99.90
26326;DHT22;14032;52.510;7.342;2023-07-13T12:47:13;17.30;99.90
26326;DHT22;14032;52.510;7.342;2023-07-13T12:49:47;17.30;99.90
26326;DHT22;14032;52.510;7.342;2023-07-13T12:52:36;17.30;99.90
26326;DHT22;14032;52.510;7.342;2023-07-13T12:55:13;17.30;99.90
26326;DHT22;14032;52.510;7.342;2023-07-13T12:57:58;17.40;99.90
26326;DHT22;14032;52.510;7.342;2023-07-13T13:02:54;17.50;99.90
26326;DHT22;14032;52.510;7.342;2023-07-13T13:05:21;17.50;99.90
26326;DHT22;14032;52.510;7.342;2023-07-13T13:07:49;17.60;99.90
26326;DHT22;14032;52.510;7.342;2023-07-13T13:10:15;17.60;99.90
26326;DHT22;14032;52.510;7.342;2023-07-13T13:12:41;17.60;99.90
26326;DHT22;14032;52.510;7.342;2023-07-13T13:15:08;17.60;99.90
26326;DHT22;14032;52.510;7.342;2023-07-13T13:17:36;17.60;99.90
26326;DHT22;14032;52.510;7.342;2023-07-13T13:20:01;17.60;99.90
26326;DHT22;14032;52.510;7.342;2023-07-13T13:22:27;17.50;99.90
26326;DHT22;14032;52.510;7.342;2023-07-13T13:24:53;17.50;99.90
26326;DHT22;14032;52.510;7.342;2023-07-13T13:27:22;17.50;99.90
26326;DHT22;14032;52.510;7.342;2023-07-13T13:29:50;17.50;99.90
26326;DHT22;14032;52.510;7.342;2023-07-13T13:32:19;17.50;99.90
26326;DHT22;14032;52.510;7.342;2023-07-13T13:34:46;17.50;99.90
26326;DHT22;14032;52.510;7.342;2023-07-13T13:37:18;17.40;99.90
26326;DHT22;14032;52.510;7.342;2023-07-13T13:39:45;17.40;99.90
26326;DHT22;14032;52.510;7.342;2023-07-13T13:42:10;17.30;99.90
26326;DHT22;14032;52.510;7.342;2023-07-13T13:44:39;17.20;99.90
26326;DHT22;14032;52.510;7.342;2023-07-13T13:47:27;17.10;99.90
26326;DHT22;14032;52.510;7.342;2023-07-13T13:49:53;17.10;99.90
26326;DHT22;14032;52.510;7.342;2023-07-13T13:52:22;17.00;99.90
26326;DHT22;14032;52.510;7.342;2023-07-13T13:54:47;17.00;99.90
26326;DHT22;14032;52.510;7.342;2023-07-13T13:57:14;16.90;99.90
26326;DHT22;14032;52.510;7.342;2023-07-13T13:59:39;16.80;99.90
26326;DHT22;14032;52.510;7.342;2023-07-13T14:02:22;16.60;99.90
26326;DHT22;14032;52.510;7.342;2023-07-13T14:04:56;16.60;99.90
26326;DHT22;14032;52.510;7.342;2023-07-13T14:07:22;16.50;99.90
26326;DHT22;14032;52.510;7.342;2023-07-13T14:09:47;16.40;99.90
26326;DHT22;14032;52.510;7.342;2023-07-13T14:12:13;16.40;99.90
26326;DHT22;14032;52.510;7.342;2023-07-13T14:14:39;16.40;99.90
26326;DHT22;14032;52.510;7.342;2023-07-13T14:17:04;16.40;99.90
26326;DHT22;14032;52.510;7.342;2023-07-13T14:19:30;16.30;99.90
26326;DHT22;14032;52.510;7.342;2023-07-13T14:21:55;16.40;99.90
26326;DHT22;14032;52.510;7.342;2023-07-13T14:24:21;16.40;99.90
26326;DHT22;14032;52.510;7.342;2023-07-13T14:26:47;16.40;99.90
26326;DHT22;14032;52.510;7.342;2023-07-13T14:29:15;16.50;99.90
26326;DHT22;14032;52.510;7.342;2023-07-13T14:31:42;16.60;99.90
26326;DHT22;14032;52.510;7.342;2023-07-13T14:34:10;16.80;99.90
26326;DHT22;14032;52.510;7.342;2023-07-13T14:36:44;16.90;99.90
26326;DHT22;14032;52.510;7.342;2023-07-13T14:39:22;17.00;99.90
26326;DHT22;14032;52.510;7.342;2023-07-13T14:41:51;17.00;99.90
26326;DHT22;14032;52.510;7.342;2023-07-13T14:44:20;17.10;99.90
26326;DHT22;14032;52.510;7.342;2023-07-13T14:46:46;17.10;99.90
26326;DHT22;14032;52.510;7.342;2023-07-13T14:52:20;17.10;99.90
26326;DHT22;14032;52.510;7.342;2023-07-13T14:54:46;17.20;99.90
26326;DHT22;14032;52.510;7.342;2023-07-13T14:57:17;17.20;99.90
26326;DHT22;14032;52.510;7.342;2023-07-13T14:59:44;17.30;99.90
26326;DHT22;14032;52.510;7.342;2023-07-13T15:02:17;17.30;99.90
26326;DHT22;14032;52.510;7.342;2023-07-13T15:04:44;17.30;99.90
26326;DHT22;14032;52.510;7.342;2023-07-13T15:07:11;17.30;99.90
26326;DHT22;14032;52.510;7.342;2023-07-13T15:09:39;17.30;99.90
26326;DHT22;14032;52.510;7.342;2023-07-13T15:12:05;17.30;99.90
26326;DHT22;14032;52.510;7.342;2023-07-13T15:14:30;17.30;99.90
26326;DHT22;14032;52.510;7.342;2023-07-13T15:16:56;17.40;99.90
26326;DHT22;14032;52.510;7.342;2023-07-13T15:19:23;17.40;99.90
26326;DHT22;14032;52.510;7.342;2023-07-13T15:21:49;17.40;99.90
26326;DHT22;14032;52.510;7.342;2023-07-13T15:24:15;17.50;99.90
26326;DHT22;14032;52.510;7.342;2023-07-13T15:26:42;17.60;99.90
26326;DHT22;14032;52.510;7.342;2023-07-13T15:29:12;17.70;99.90
26326;DHT22;14032;52.510;7.342;2023-07-13T15:31:38;17.70;99.90
26326;DHT22;14032;52.510;7.342;2023-07-13T15:34:16;17.80;99.90
26326;DHT22;14032;52.510;7.342;2023-07-13T15:36:43;17.90;99.90
26326;DHT22;14032;52.510;7.342;2023-07-13T15:39:15;17.90;99.90
26326;DHT22;14032;52.510;7.342;2023-07-13T15:41:45;17.90;99.90
26326;DHT22;14032;52.510;7.342;2023-07-13T15:44:23;17.90;99.90
26326;DHT22;14032;52.510;7.342;2023-07-13T15:46:48;17.90;99.90
26326;DHT22;14032;52.510;7.342;2023-07-13T15:49:15;17.90;99.90
26326;DHT22;14032;52.510;7.342;2023-07-13T15:51:41;17.90;99.90
26326;DHT22;14032;52.510;7.342;2023-07-13T15:54:12;17.90;99.90
26326;DHT22;14032;52.510;7.342;2023-07-13T15:56:39;17.90;99.90
26326;DHT22;14032;52.510;7.342;2023-07-13T15:59:09;17.90;99.90
26326;DHT22;14032;52.510;7.342;2023-07-13T16:01:36;17.90;99.90
26326;DHT22;14032;52.510;7.342;2023-07-13T16:04:01;18.00;99.90
26326;DHT22;14032;52.510;7.342;2023-07-13T16:06:37;18.00;99.90
26326;DHT22;14032;52.510;7.342;2023-07-13T16:09:06;18.00;99.90
26326;DHT22;14032;52.510;7.342;2023-07-13T16:11:37;18.10;99.90
26326;DHT22;14032;52.510;7.342;2023-07-13T16:14:03;18.20;99.90
26326;DHT22;14032;52.510;7.342;2023-07-13T16:16:31;18.30;99.90